Time;durP1;ratioP1;P1;durP2;ratioP2;P2;SDS_P1;SDS_P2;PMS_P1;PMS_P2;Temp;Humidity;BMP_temperature;BMP_pressure;BME280_temperature;BME280_humidity;BME280_pressure;Samples;Min_cycle;Max_cycle;Signal;HPM_P1;HPM_P2
2022/05/17 00:00:51;;;;;;;4.97;4.57;;;;;;;23.90;37.18;95304.50;6159468;28;104659;-55
2022/05/17 00:03:55;;;;;;;5.10;4.70;;;;;;;23.89;36.88;95305.59;6149804;28;103746;-55
2022/05/17 00:06:58;;;;;;;4.93;4.57;;;;;;;23.88;36.85;95308.59;6162660;28;104221;-54
2022/05/17 00:10:01;;;;;;;5.00;4.60;;;;;;;23.88;36.85;95304.03;6150602;28;103199;-54
2022/05/17 00:13:04;;;;;;;5.70;5.20;;;;;;;23.87;36.99;95304.34;6139301;28;103168;-54
2022/05/17 00:16:09;;;;;;;5.13;4.83;;;;;;;23.86;36.91;95303.56;6128378;28;103291;-54
2022/05/17 00:19:16;;;;;;;5.13;4.73;;;;;;;23.87;37.25;95307.78;6138575;28;103139;-55
2022/05/17 00:22:19;;;;;;;4.60;4.30;;;;;;;23.86;36.84;95302.75;6139753;28;104194;-55
2022/05/17 00:25:24;;;;;;;5.13;4.73;;;;;;;23.90;36.90;95314.41;6154687;28;103804;-55
2022/05/17 00:28:27;;;;;;;5.07;4.57;;;;;;;23.88;36.75;95304.03;6157999;28;104153;-55
2022/05/17 00:31:33;;;;;;;5.03;4.63;;;;;;;23.85;36.81;95312.63;6163295;28;103998;-55
2022/05/17 00:34:36;;;;;;;6.40;4.97;;;;;;;23.86;36.70;95308.09;6161730;28;103046;-54
2022/05/17 00:37:39;;;;;;;4.30;4.00;;;;;;;23.86;36.75;95308.09;6152197;28;103179;-55
2022/05/17 00:40:43;;;;;;;5.90;4.50;;;;;;;23.83;36.85;95298.81;6154646;28;104334;-55
2022/05/17 00:47:13;;;;;;;5.27;4.87;;;;;;;23.84;37.30;95303.03;6160548;28;104171;-55
2022/05/17 00:50:27;;;;;;;4.70;4.37;;;;;;;23.83;37.04;95303.34;6142316;28;104103;-55
2022/05/17 00:53:34;;;;;;;5.33;4.83;;;;;;;23.82;37.10;95307.91;6155035;28;102927;-54
2022/05/17 00:56:43;;;;;;;5.83;5.43;;;;;;;23.81;36.86;95303.66;6138520;28;103234;-55
2022/05/17 00:59:48;;;;;;;5.20;4.90;;;;;;;23.85;37.46;95301.94;6151850;28;103975;-55
2022/05/17 01:02:56;;;;;;;4.63;4.33;;;;;;;23.80;37.37;95294.09;6161723;28;103213;-55
2022/05/17 01:05:59;;;;;;;5.73;5.30;;;;;;;23.83;37.22;95303.34;6161995;28;103353;-55
2022/05/17 01:09:02;;;;;;;5.67;5.17;;;;;;;23.84;36.97;95291.56;6162372;28;103172;-55
2022/05/17 01:12:06;;;;;;;5.50;5.20;;;;;;;23.80;37.07;95291.41;6149692;28;104749;-55
2022/05/17 01:15:11;;;;;;;5.60;5.20;;;;;;;23.78;37.16;95290.16;6160744;28;103013;-55
2022/05/17 01:18:16;;;;;;;5.30;5.00;;;;;;;23.81;37.33;95290.31;6161275;28;102912;-55
2022/05/17 01:21:21;;;;;;;5.40;5.03;;;;;;;23.79;37.57;95286.38;6161521;28;104083;-55
2022/05/17 01:24:25;;;;;;;5.10;4.80;;;;;;;23.80;37.41;95280.72;6139657;28;104697;-55
2022/05/17 01:27:37;;;;;;;5.23;4.83;;;;;;;23.80;37.11;95279.94;6161933;28;103178;-55
2022/05/17 01:30:40;;;;;;;4.90;4.60;;;;;;;23.76;37.20;95282.44;6161565;28;102642;-54
2022/05/17 01:33:43;;;;;;;6.00;5.40;;;;;;;23.77;37.46;95283.22;6128999;28;104563;-55
2022/05/17 01:36:48;;;;;;;5.33;4.87;;;;;;;23.77;37.09;95283.22;6153177;28;103234;-55
2022/05/17 01:39:51;;;;;;;5.00;4.60;;;;;;;23.78;37.12;95280.25;6137346;28;103354;-55
2022/05/17 01:42:54;;;;;;;5.10;4.80;;;;;;;23.76;37.12;95282.44;6138012;28;104344;-55
2022/05/17 01:45:58;;;;;;;5.43;4.77;;;;;;;23.77;36.80;95286.69;6149943;28;103026;-55
2022/05/17 01:49:01;;;;;;;5.10;4.77;;;;;;;23.77;37.26;95278.66;6151635;28;103344;-55
2022/05/17 01:52:06;;;;;;;5.00;4.70;;;;;;;23.76;36.91;95281.66;6137698;28;103949;-54
2022/05/17 01:55:09;;;;;;;5.67;5.17;;;;;;;23.76;37.39;95287.78;6159121;28;103450;-54
2022/05/17 01:58:12;;;;;;;5.27;4.90;;;;;;;23.77;37.28;95286.69;6152097;28;103220;-54
2022/05/17 02:01:15;;;;;;;5.50;5.10;;;;;;;23.75;37.21;95291.56;6160611;28;103255;-54
2022/05/17 02:04:19;;;;;;;4.73;4.20;;;;;;;23.74;37.31;95298.00;6161648;28;103919;-54
2022/05/17 02:07:23;;;;;;;5.67;5.20;;;;;;;23.75;37.25;95296.91;6144243;28;104192;-54
2022/05/17 02:10:27;;;;;;;6.20;4.70;;;;;;;23.75;37.43;95296.91;6152278;28;104247;-56
2022/05/17 02:13:30;;;;;;;5.30;4.90;;;;;;;23.72;37.38;95294.84;6160186;28;103192;-56
2022/05/17 02:16:36;;;;;;;5.30;4.90;;;;;;;23.74;37.25;95291.88;6160962;28;103449;-56
2022/05/17 02:19:39;;;;;;;5.10;4.80;;;;;;;23.74;37.35;95297.22;6150825;28;103362;-56
2022/05/17 02:22:44;;;;;;;5.03;4.63;;;;;;;23.69;37.64;95292.81;6156896;28;103788;-56
2022/05/17 02:25:48;;;;;;;5.90;5.43;;;;;;;23.72;37.78;95300.19;6144685;28;103228;-57
2022/05/17 02:28:51;;;;;;;5.50;5.10;;;;;;;23.73;37.45;95298.31;6150681;28;103257;-59
2022/05/17 02:31:54;;;;;;;6.17;5.13;;;;;;;23.73;37.53;95293.75;6150550;28;103431;-57
2022/05/17 02:34:57;;;;;;;5.73;4.90;;;;;;;23.65;37.64;95283.81;6156961;28;103109;-56
2022/05/17 02:38:02;;;;;;;4.97;4.67;;;;;;;23.70;37.41;95299.72;6155735;28;103360;-56
2022/05/17 02:41:05;;;;;;;5.93;5.40;;;;;;;23.71;37.34;95301.28;6144220;28;103019;-58
2022/05/17 02:44:08;;;;;;;5.23;4.93;;;;;;;23.71;37.78;95306.66;6129906;28;103270;-57
2022/05/17 02:47:12;;;;;;;5.60;5.20;;;;;;;23.70;37.25;95298.94;6146321;28;104169;-58
2022/05/17 02:50:16;;;;;;;5.77;5.17;;;;;;;23.65;37.37;95291.03;6158724;28;103585;-56
2022/05/17 02:53:21;;;;;;;5.30;4.80;;;;;;;23.68;37.43;95291.22;6126924;28;103178;-56
2022/05/17 02:56:24;;;;;;;5.33;4.93;;;;;;;23.67;37.54;95288.84;6140299;28;104078;-58
2022/05/17 02:59:28;;;;;;;5.10;4.77;;;;;;;23.65;37.72;95291.81;6153428;28;104064;-57
2022/05/17 03:02:31;;;;;;;5.70;5.20;;;;;;;23.65;37.17;95293.72;6135674;28;103106;-56
2022/05/17 03:05:34;;;;;;;4.60;4.20;;;;;;;23.54;37.66;95296.69;6139837;28;104029;-57
2022/05/17 03:08:38;;;;;;;4.77;4.33;;;;;;;23.45;37.78;95298.50;6151644;28;103564;-56
2022/05/17 03:11:43;;;;;;;4.70;4.17;;;;;;;23.40;37.13;95300.53;6159623;28;103429;-56
2022/05/17 03:14:46;;;;;;;6.43;5.93;;;;;;;23.40;37.46;95297.88;6144363;28;103278;-56
2022/05/17 03:17:49;;;;;;;4.30;4.00;;;;;;;23.39;37.37;95299.75;6146800;28;102995;-56
2022/05/17 03:20:52;;;;;;;4.80;4.40;;;;;;;23.41;37.60;95305.56;6145836;28;102998;-57
2022/05/17 03:23:57;;;;;;;4.80;4.40;;;;;;;23.40;37.30;95304.00;6149515;28;104385;-57
2022/05/17 03:27:00;;;;;;;4.37;4.03;;;;;;;23.29;37.51;95300.00;6141268;28;103124;-56
2022/05/17 03:30:04;;;;;;;4.20;3.83;;;;;;;23.29;37.02;95298.13;6147030;28;103081;-56
2022/05/17 03:33:07;;;;;;;5.40;5.00;;;;;;;23.33;36.95;95300.97;6152998;28;104256;-56
2022/05/17 03:36:11;;;;;;;5.97;4.83;;;;;;;23.31;37.49;95308.50;6155087;28;102802;-56
2022/05/17 03:39:15;;;;;;;6.17;5.10;;;;;;;23.21;38.33;95304.19;6135227;28;104265;-57
2022/05/17 03:42:19;;;;;;;5.07;4.67;;;;;;;23.26;38.68;95300.59;6149326;28;103205;-56
2022/05/17 03:45:22;;;;;;;5.20;4.70;;;;;;;23.27;38.46;95313.63;6141866;28;103006;-56
2022/05/17 03:48:28;;;;;;;5.50;4.97;;;;;;;23.33;38.31;95310.84;6147834;28;103303;-58
2022/05/17 03:51:31;;;;;;;8.80;5.50;;;;;;;23.29;38.11;95305.34;6144179;28;104490;-56
2022/05/17 03:54:36;;;;;;;8.87;5.30;;;;;;;22.96;39.22;95307.50;6155353;28;104291;-56
2022/05/17 03:57:39;;;;;;;11.40;10.30;;;;;;;22.82;39.42;95312.09;6154884;28;104230;-57
2022/05/17 04:00:43;;;;;;;7.00;6.07;;;;;;;22.75;40.38;95311.75;6140150;28;103931;-57
2022/05/17 04:03:46;;;;;;;6.53;5.60;;;;;;;23.00;40.86;95319.13;6136031;28;104192;-57
2022/05/17 04:06:49;;;;;;;7.13;6.00;;;;;;;23.20;39.14;95329.31;6147621;28;104326;-58
2022/05/17 04:09:53;;;;;;;10.67;9.70;;;;;;;23.16;39.70;95323.00;6152762;28;103473;-56
2022/05/17 04:12:56;;;;;;;8.80;7.93;;;;;;;23.01;39.69;95315.34;6153980;28;104145;-56
2022/05/17 04:16:01;;;;;;;8.23;7.53;;;;;;;23.04;39.14;95314.78;6182843;28;103257;-56
2022/05/17 04:19:05;;;;;;;13.30;6.63;;;;;;;23.06;39.77;95315.25;6170366;28;103508;-56
2022/05/17 04:22:11;;;;;;;7.93;6.53;;;;;;;22.73;39.66;95329.94;6155963;28;103441;-55
2022/05/17 04:25:17;;;;;;;7.77;7.17;;;;;;;22.26;40.04;95327.47;6148164;28;103106;-56
2022/05/17 04:28:20;;;;;;;6.50;5.90;;;;;;;22.17;40.54;95331.91;6158204;28;103265;-57
2022/05/17 04:31:23;;;;;;;7.10;6.40;;;;;;;21.97;40.44;95330.47;6157631;28;103239;-56
2022/05/17 04:34:27;;;;;;;6.93;6.30;;;;;;;22.01;40.48;95331.47;6157651;28;103703;-56
2022/05/17 04:37:30;;;;;;;7.67;6.97;;;;;;;21.93;41.24;95329.47;6148575;28;103818;-55
2022/05/17 04:40:35;;;;;;;9.93;7.20;;;;;;;21.99;40.67;95338.94;6159000;28;103099;-56
2022/05/17 04:43:39;;;;;;;8.37;7.53;;;;;;;21.98;41.15;95332.03;6158670;28;103514;-56
2022/05/17 04:46:42;;;;;;;7.53;6.80;;;;;;;21.94;41.21;95331.06;6150176;28;103194;-58
2022/05/17 04:49:45;;;;;;;8.10;7.30;;;;;;;21.96;41.17;95334.22;6158040;28;104203;-56
2022/05/17 04:52:49;;;;;;;7.70;6.10;;;;;;;22.26;40.81;95338.13;6162389;28;103098;-56
2022/05/17 04:55:54;;;;;;;7.30;6.47;;;;;;;22.45;40.38;95342.53;6163065;28;104036;-56
2022/05/17 04:58:57;;;;;;;7.40;6.73;;;;;;;22.56;40.12;95334.00;6152155;28;103066;-56
2022/05/17 05:02:00;;;;;;;8.93;6.40;;;;;;;22.59;40.40;95336.09;6162981;28;104343;-56
2022/05/17 05:05:03;;;;;;;7.20;6.60;;;;;;;22.66;40.05;95336.47;6161562;28;102993;-56
2022/05/17 05:08:07;;;;;;;9.40;6.73;;;;;;;22.57;40.26;95329.50;6162490;28;103480;-56
2022/05/17 05:11:11;;;;;;;7.53;6.80;;;;;;;22.54;40.31;95324.75;6153080;28;103494;-56
2022/05/17 05:14:14;;;;;;;9.77;7.87;;;;;;;22.53;40.48;95329.28;6162404;28;103361;-56
2022/05/17 05:17:17;;;;;;;7.40;6.70;;;;;;;22.50;40.70;95329.06;6161492;28;103075;-57
2022/05/17 05:20:21;;;;;;;8.20;7.20;;;;;;;22.18;40.81;95327.38;6157793;28;103265;-56
2022/05/17 05:23:24;;;;;;;7.87;6.80;;;;;;;22.08;41.59;95333.72;6155826;28;102988;-57
2022/05/17 05:26:28;;;;;;;12.87;7.33;;;;;;;22.01;41.78;95326.13;6162471;28;103898;-57
2022/05/17 05:29:31;;;;;;;15.53;9.93;;;;;;;21.88;42.08;95332.25;6161803;28;104085;-56
2022/05/17 05:32:34;;;;;;;8.43;7.27;;;;;;;22.01;41.56;95323.47;6152740;28;104170;-55
2022/05/17 05:35:37;;;;;;;11.20;7.63;;;;;;;21.80;42.35;95325.69;6161325;28;104213;-57
2022/05/17 05:38:41;;;;;;;7.80;7.10;;;;;;;22.15;42.14;95327.97;6162222;28;103065;-56
2022/05/17 05:41:45;;;;;;;12.10;6.93;;;;;;;22.30;42.17;95335.66;6162311;28;104063;-57
2022/05/17 05:44:48;;;;;;;9.90;7.30;;;;;;;22.26;41.96;95332.00;6151051;28;104013;-56
2022/05/17 05:47:52;;;;;;;8.37;7.30;;;;;;;22.41;41.95;95329.00;6161571;28;103862;-56
2022/05/17 05:50:55;;;;;;;9.43;6.73;;;;;;;22.69;40.85;95330.53;6161132;28;103113;-56
2022/05/17 05:53:58;;;;;;;8.10;7.10;;;;;;;22.85;40.42;95327.50;6161569;28;103940;-56
2022/05/17 05:57:03;;;;;;;7.83;6.10;;;;;;;23.01;39.70;95323.38;6151651;28;103307;-57
2022/05/17 06:00:08;;;;;;;9.30;6.40;;;;;;;23.13;40.16;95328.16;6161345;28;103138;-56
2022/05/17 06:03:11;;;;;;;8.90;6.37;;;;;;;23.18;40.20;95323.47;6161205;28;103816;-57
2022/05/17 06:06:16;;;;;;;7.03;6.40;;;;;;;23.24;40.27;95330.28;6152018;28;103215;-56
2022/05/17 06:09:19;;;;;;;6.60;6.00;;;;;;;23.37;39.84;95327.88;6161149;28;103151;-56
2022/05/17 06:12:23;;;;;;;8.50;6.40;;;;;;;23.43;40.09;95327.41;6161432;28;102760;-56
2022/05/17 06:15:26;;;;;;;7.80;7.00;;;;;;;23.48;39.71;95323.81;6161239;28;104271;-56
2022/05/17 06:18:30;;;;;;;9.83;6.70;;;;;;;23.57;40.29;95316.66;6149537;28;103043;-56
2022/05/17 06:21:34;;;;;;;6.63;6.10;;;;;;;23.63;39.82;95326.09;6160973;28;103974;-56
2022/05/17 06:24:37;;;;;;;7.40;6.70;;;;;;;23.67;39.78;95324.38;6161001;28;103249;-56
2022/05/17 06:27:41;;;;;;;8.23;7.30;;;;;;;23.66;39.85;95330.03;6160471;28;103142;-56
2022/05/17 06:30:44;;;;;;;10.07;6.90;;;;;;;23.64;39.55;95327.66;6151274;28;103302;-56
2022/05/17 06:33:47;;;;;;;7.87;6.57;;;;;;;23.67;39.61;95331.59;6160424;28;104270;-56
2022/05/17 06:36:51;;;;;;;8.13;6.60;;;;;;;23.74;39.42;95329.28;6160615;28;104462;-58
2022/05/17 06:39:56;;;;;;;7.03;6.20;;;;;;;23.85;40.13;95323.31;6156655;28;103972;-57
2022/05/17 06:43:01;;;;;;;6.30;5.90;;;;;;;23.87;39.78;95323.03;6155544;28;104197;-55
2022/05/17 06:46:05;;;;;;;6.67;6.17;;;;;;;23.90;39.90;95319.75;6160654;28;103333;-56
2022/05/17 06:49:08;;;;;;;8.13;7.37;;;;;;;24.00;39.57;95318.69;6159849;28;104010;-57
2022/05/17 06:52:12;;;;;;;7.23;6.63;;;;;;;24.00;39.22;95321.34;6149932;28;103013;-58
2022/05/17 06:55:16;;;;;;;7.63;6.60;;;;;;;24.01;39.03;95315.69;6161043;28;104179;-56
2022/05/17 06:58:22;;;;;;;7.00;6.40;;;;;;;24.00;38.80;95311.44;6160413;28;103992;-56
2022/05/17 07:01:25;;;;;;;7.60;6.90;;;;;;;24.08;39.04;95309.91;6160750;28;103193;-56
2022/05/17 07:04:28;;;;;;;7.50;6.80;;;;;;;24.18;38.57;95306.94;6149570;28;103222;-56
2022/05/17 07:07:31;;;;;;;8.40;7.13;;;;;;;24.21;38.77;95309.00;6160365;28;102780;-55
2022/05/17 07:13:57;;;;;;;7.60;6.90;;;;;;;24.25;38.61;95307.25;6154117;28;103061;-56
2022/05/17 07:17:00;;;;;;;7.50;6.90;;;;;;;24.24;38.65;95308.38;6155203;28;104141;-56
2022/05/17 07:20:04;;;;;;;7.50;6.83;;;;;;;24.35;38.37;95304.28;6158886;28;103419;-56
2022/05/17 07:23:09;;;;;;;8.20;7.20;;;;;;;24.46;38.51;95299.41;6160401;28;104191;-56
2022/05/17 07:26:14;;;;;;;7.07;6.43;;;;;;;24.58;38.63;95290.75;6149588;28;102998;-54
2022/05/17 07:29:18;;;;;;;7.73;7.03;;;;;;;24.69;38.51;95286.69;6159087;28;102992;-54
2022/05/17 07:32:21;;;;;;;7.47;6.40;;;;;;;24.75;38.09;95291.56;6160236;28;103071;-54
2022/05/17 07:35:24;;;;;;;7.30;6.60;;;;;;;24.81;38.18;95297.53;6158975;28;103234;-54
2022/05/17 07:38:28;;;;;;;7.40;6.70;;;;;;;24.85;37.83;95284.31;6150028;28;104172;-53
2022/05/17 07:41:31;;;;;;;7.33;6.53;;;;;;;24.88;38.02;95289.81;6159632;28;103219;-54
2022/05/17 07:44:36;;;;;;;6.70;6.20;;;;;;;24.93;37.94;95286.19;6159684;28;103298;-54
2022/05/17 07:47:39;;;;;;;6.93;6.30;;;;;;;24.96;37.95;95280.19;6158728;28;103251;-54
2022/05/17 07:50:42;;;;;;;7.13;6.43;;;;;;;24.96;37.79;95275.63;6150112;28;104516;-54
2022/05/17 07:53:46;;;;;;;6.30;5.80;;;;;;;24.99;37.80;95272.31;6159568;28;103124;-54
2022/05/17 07:56:49;;;;;;;7.77;6.30;;;;;;;25.03;37.82;95270.59;6158944;28;103286;-54
2022/05/17 07:59:53;;;;;;;7.37;6.20;;;;;;;25.04;37.77;95271.38;6149741;28;103302;-54
2022/05/17 08:02:58;;;;;;;6.93;6.23;;;;;;;25.05;37.44;95267.59;6159014;28;103130;-55
2022/05/17 08:06:01;;;;;;;7.17;6.20;;;;;;;25.07;37.55;95263.47;6159181;28;104109;-54
2022/05/17 08:09:05;;;;;;;6.97;6.43;;;;;;;25.10;37.47;95259.38;6159451;28;104104;-54
2022/05/17 08:12:10;;;;;;;7.40;6.10;;;;;;;25.13;37.68;95260.63;6149212;28;104045;-54
2022/05/17 08:15:16;;;;;;;7.40;6.33;;;;;;;25.15;37.19;95266.44;6159547;28;103027;-54
2022/05/17 08:18:20;;;;;;;6.63;6.10;;;;;;;25.17;37.29;95254.31;6158993;28;103153;-54
2022/05/17 08:21:23;;;;;;;6.70;6.10;;;;;;;25.19;37.61;95253.97;6158404;28;104377;-54
2022/05/17 08:24:27;;;;;;;7.30;6.70;;;;;;;25.22;37.26;95242.66;6151073;28;103405;-54
2022/05/17 08:27:32;;;;;;;6.17;5.67;;;;;;;25.22;37.36;95240.75;6162928;28;105172;-54
2022/05/17 08:30:38;;;;;;;7.60;6.20;;;;;;;25.24;37.64;95248.47;6163241;28;103327;-54
2022/05/17 08:33:41;;;;;;;8.30;6.33;;;;;;;25.23;37.34;95239.66;6157827;28;104162;-54
2022/05/17 08:36:44;;;;;;;7.27;5.83;;;;;;;25.25;37.40;95242.00;6158432;28;106036;-55
2022/05/17 08:39:48;;;;;;;6.83;6.13;;;;;;;25.25;37.30;95240.09;6163230;28;103011;-54
2022/05/17 08:43:06;;;;;;;6.10;5.60;;;;;;;25.26;37.06;95233.63;6163152;28;103620;-54
2022/05/17 08:46:27;;;;;;;7.00;5.90;;;;;;;25.27;37.25;95231.75;6152327;28;103503;-54
2022/05/17 08:49:35;;;;;;;7.47;6.70;;;;;;;25.29;37.17;95232.22;6162508;28;104155;-55
2022/05/17 08:52:40;;;;;;;6.83;6.10;;;;;;;25.30;37.30;95233.78;6162550;28;104137;-54
2022/05/17 08:55:44;;;;;;;8.23;6.20;;;;;;;25.29;37.55;95230.31;6162576;28;103648;-54
2022/05/17 08:58:50;;;;;;;8.83;5.90;;;;;;;25.29;37.34;95224.97;6152744;28;103253;-55
2022/05/17 09:02:01;;;;;;;6.10;5.60;;;;;;;25.30;37.29;95223.84;6163110;28;103116;-55
2022/05/17 09:05:13;;;;;;;6.97;6.37;;;;;;;25.31;37.14;95228.09;6162165;28;102997;-54
2022/05/17 09:08:28;;;;;;;7.00;6.30;;;;;;;25.30;37.27;95213.13;6151948;28;104737;-54
2022/05/17 09:11:36;;;;;;;6.87;6.20;;;;;;;25.31;37.19;95214.69;6162313;28;102763;-54
2022/05/17 09:14:45;;;;;;;7.07;6.27;;;;;;;25.32;37.37;95216.28;6162944;28;104049;-55
2022/05/17 09:17:49;;;;;;;7.30;6.70;;;;;;;25.33;36.91;95209.03;6161961;28;103381;-54
2022/05/17 09:20:52;;;;;;;9.10;6.57;;;;;;;25.30;37.08;95207.00;6152330;28;103256;-55
2022/05/17 09:23:57;;;;;;;8.03;6.10;;;;;;;25.31;37.01;95211.25;6161591;28;102710;-54
2022/05/17 09:27:06;;;;;;;6.97;6.33;;;;;;;25.31;36.83;95205.88;6161623;28;103770;-54
2022/05/17 09:30:14;;;;;;;7.80;7.10;;;;;;;25.31;36.58;95201.31;6156922;28;103815;-55
2022/05/17 09:33:21;;;;;;;6.43;5.93;;;;;;;25.32;36.64;95202.88;6156263;28;104152;-55
2022/05/17 09:36:26;;;;;;;6.33;5.83;;;;;;;25.31;36.81;95203.19;6161229;28;104004;-55
2022/05/17 09:39:30;;;;;;;5.77;5.27;;;;;;;25.31;36.73;95197.84;6161797;28;104146;-55
2022/05/17 09:42:36;;;;;;;6.43;5.83;;;;;;;25.30;36.77;95185.56;6151838;28;104288;-54
2022/05/17 09:45:49;;;;;;;6.93;6.20;;;;;;;25.25;36.57;95181.19;6162132;28;104008;-54
2022/05/17 09:52:38;;;;;;;6.70;6.10;;;;;;;25.30;36.64;95178.31;6162017;28;104225;-55
2022/05/17 09:55:47;;;;;;;6.40;5.80;;;;;;;25.27;36.38;95178.19;6155262;28;104241;-54
2022/05/17 09:58:50;;;;;;;6.30;5.70;;;;;;;25.24;36.33;95171.56;6160926;28;103756;-55
2022/05/17 10:01:55;;;;;;;6.10;5.60;;;;;;;25.24;36.44;95168.09;6161066;28;104371;-55
2022/05/17 10:05:01;;;;;;;5.40;5.00;;;;;;;25.23;36.18;95166.53;6150904;28;103096;-54
2022/05/17 10:08:11;;;;;;;8.70;6.13;;;;;;;25.23;36.29;95166.53;6161115;28;104146;-55
2022/05/17 10:11:18;;;;;;;6.37;5.90;;;;;;;25.22;36.01;95164.97;6148160;28;104084;-54
2022/05/17 10:14:30;;;;;;;6.70;6.17;;;;;;;25.20;36.33;95151.09;6161452;28;103298;-54
2022/05/17 10:17:40;;;;;;;6.20;5.70;;;;;;;25.20;36.31;95151.88;6148560;28;103014;-60
2022/05/17 10:20:49;;;;;;;5.77;5.27;;;;;;;25.19;36.13;95144.16;6160004;28;103447;-55
2022/05/17 10:24:01;;;;;;;6.00;5.50;;;;;;;25.19;36.09;95141.50;6160965;28;103240;-55
2022/05/17 10:27:11;;;;;;;6.20;5.60;;;;;;;25.16;35.98;95136.78;6154941;28;103263;-54
2022/05/17 10:30:19;;;;;;;5.53;5.13;;;;;;;25.15;35.92;95133.31;6157435;28;104996;-54
2022/05/17 10:33:31;;;;;;;5.90;5.40;;;;;;;25.12;36.05;95125.94;6159043;28;104462;-54
2022/05/17 10:36:43;;;;;;;6.20;5.67;;;;;;;25.11;35.86;95120.91;6161239;28;103023;-55
2022/05/17 10:39:52;;;;;;;5.90;5.30;;;;;;;25.11;36.03;95118.22;6150300;28;103561;-54
2022/05/17 10:42:55;;;;;;;6.37;5.50;;;;;;;25.10;36.20;95120.13;6160766;28;103277;-56
2022/05/17 10:46:08;;;;;;;6.97;6.30;;;;;;;25.06;36.08;95109.28;6160498;28;103388;-57
2022/05/17 10:49:24;;;;;;;7.07;6.43;;;;;;;24.99;35.33;95108.97;6158961;28;103355;-57
2022/05/17 10:52:40;;;;;;;7.20;6.70;;;;;;;24.97;34.82;95099.69;6155475;28;103994;-56
2022/05/17 10:56:07;;;;;;;8.00;7.33;;;;;;;24.95;34.27;95100.03;6161052;28;103293;-57
2022/05/17 10:59:20;;;;;;;8.10;7.30;;;;;;;25.01;33.89;95090.69;6160014;28;103645;-57
2022/05/17 11:02:39;;;;;;;7.20;6.60;;;;;;;24.82;33.58;95093.00;6150084;28;105457;-55
2022/05/17 11:05:54;;;;;;;7.73;7.20;;;;;;;24.78;33.89;95081.38;6160627;28;102971;-55
2022/05/17 11:09:12;;;;;;;11.73;10.73;;;;;;;24.58;32.66;95082.06;6159649;28;104195;-54
2022/05/17 11:12:19;;;;;;;10.47;9.57;;;;;;;24.67;33.50;95080.13;6155701;28;103038;-55
2022/05/17 11:15:27;;;;;;;9.13;8.33;;;;;;;24.59;32.14;95072.94;6154496;28;104220;-55
2022/05/17 11:18:40;;;;;;;9.13;8.27;;;;;;;24.58;33.14;95066.00;6159765;28;103003;-55
2022/05/17 11:21:49;;;;;;;8.83;7.93;;;;;;;24.54;32.50;95063.19;6160484;28;104214;-55
2022/05/17 11:25:19;;;;;;;12.23;11.23;;;;;;;24.55;32.09;95053.28;6148387;28;103228;-56
2022/05/17 11:28:55;;;;;;;12.07;11.17;;;;;;;24.49;30.92;95052.66;6160020;28;104291;-55
2022/05/17 11:31:59;;;;;;;11.50;10.53;;;;;;;24.48;30.53;95046.50;6158118;28;103047;-56
2022/05/17 11:35:24;;;;;;;12.43;10.87;;;;;;;24.51;30.56;95047.75;6153986;28;104329;-55
2022/05/17 11:38:49;;;;;;;12.10;11.10;;;;;;;24.50;31.27;95049.66;6158535;28;102912;-55
2022/05/17 11:42:06;;;;;;;11.83;10.80;;;;;;;24.56;31.29;95038.78;6159607;28;103219;-55
2022/05/17 11:45:21;;;;;;;9.00;8.30;;;;;;;24.57;30.66;95026.97;6159590;28;103199;-55
2022/05/17 11:48:44;;;;;;;9.40;8.60;;;;;;;24.49;30.99;95031.25;6149087;28;103842;-55
2022/05/17 11:52:23;;;;;;;10.70;9.60;;;;;;;24.52;31.40;95029.81;6159498;28;104367;-55
2022/05/17 11:55:29;;;;;;;9.80;8.87;;;;;;;24.50;31.15;95016.75;6156400;28;103370;-55
2022/05/17 11:58:33;;;;;;;8.73;7.93;;;;;;;24.50;30.87;95016.75;6148111;28;104157;-55
2022/05/17 12:01:50;;;;;;;11.20;10.30;;;;;;;24.55;31.93;95016.59;6158582;28;104310;-54
2022/05/17 12:04:53;;;;;;;9.17;8.50;;;;;;;24.54;30.88;95011.56;6158888;28;104247;-55
2022/05/17 12:08:30;;;;;;;10.93;10.00;;;;;;;24.62;32.34;95002.72;6159473;28;104221;-56
2022/05/17 12:11:43;;;;;;;11.07;10.17;;;;;;;24.62;32.24;95002.72;6149546;28;104417;-55
2022/05/17 12:14:59;;;;;;;10.13;9.33;;;;;;;24.60;32.12;94994.22;6159545;28;103590;-56
2022/05/17 12:18:12;;;;;;;9.57;8.80;;;;;;;24.60;31.90;94994.22;6158559;28;103041;-56
2022/05/17 12:21:29;;;;;;;10.10;9.10;;;;;;;24.58;31.98;94986.53;6148822;28;104386;-57
2022/05/17 12:24:51;;;;;;;10.10;9.20;;;;;;;24.59;31.90;94990.75;6158689;28;103195;-57
2022/05/17 12:27:56;;;;;;;9.00;8.30;;;;;;;24.58;32.01;94975.81;6159450;28;103253;-56
2022/05/17 12:31:01;;;;;;;8.63;8.00;;;;;;;24.60;31.96;94972.81;6158485;28;103222;-56
2022/05/17 12:34:07;;;;;;;8.20;7.50;;;;;;;24.60;32.01;94964.78;6149097;28;103046;-57
2022/05/17 12:37:12;;;;;;;7.83;7.23;;;;;;;24.58;32.04;94954.41;6158459;28;103420;-56
2022/05/17 12:43:37;;;;;;;7.23;5.90;;;;;;;24.59;32.12;94939.94;6149575;28;104174;-56
2022/05/17 12:46:45;;;;;;;6.33;5.93;;;;;;;24.61;32.38;94931.56;6157591;28;103135;-56
2022/05/17 12:49:53;;;;;;;5.80;5.30;;;;;;;24.61;32.18;94931.56;6158835;28;103119;-57
2022/05/17 12:52:58;;;;;;;6.07;5.67;;;;;;;24.60;32.30;94924.66;6158377;28;103073;-56
2022/05/17 12:56:06;;;;;;;6.20;5.80;;;;;;;24.59;31.77;94917.75;6148841;28;105370;-56
2022/05/17 12:59:09;;;;;;;5.63;5.13;;;;;;;24.59;31.77;94917.75;6159187;28;104045;-56
2022/05/17 13:02:21;;;;;;;6.20;5.60;;;;;;;24.63;31.88;94905.28;6157919;28;103105;-57
2022/05/17 13:05:31;;;;;;;6.40;5.90;;;;;;;24.64;31.17;94907.63;6158793;28;103080;-57
2022/05/17 13:08:37;;;;;;;6.10;5.37;;;;;;;24.66;31.28;94907.28;6151673;28;104204;-56
2022/05/17 13:11:40;;;;;;;6.00;5.50;;;;;;;24.67;31.29;94887.44;6159926;28;103208;-57
2022/05/17 13:14:48;;;;;;;6.10;5.60;;;;;;;24.67;31.64;94887.44;6162201;28;103210;-56
2022/05/17 13:17:57;;;;;;;6.63;6.13;;;;;;;24.75;32.72;94881.28;6152100;28;104200;-56
2022/05/17 13:21:03;;;;;;;6.80;6.30;;;;;;;24.79;33.04;94880.31;6162304;28;104204;-56
2022/05/17 13:24:09;;;;;;;6.13;5.63;;;;;;;24.81;32.96;94871.94;6161756;28;103475;-56
2022/05/17 13:27:25;;;;;;;6.60;6.00;;;;;;;24.81;33.09;94874.63;6162313;28;104404;-57
2022/05/17 13:30:31;;;;;;;7.00;6.00;;;;;;;24.79;33.26;94864.25;6151457;28;103033;-57
2022/05/17 13:33:38;;;;;;;7.03;6.43;;;;;;;24.81;33.26;94863.13;6161632;28;102903;-56
2022/05/17 13:36:43;;;;;;;7.03;6.43;;;;;;;24.78;33.21;94851.19;6162587;28;103286;-55
2022/05/17 13:39:49;;;;;;;6.70;6.10;;;;;;;24.75;32.96;94855.31;6157345;28;102918;-55
2022/05/17 13:42:58;;;;;;;6.50;6.00;;;;;;;24.72;33.13;94853.28;6156845;28;105007;-54
2022/05/17 13:46:09;;;;;;;6.33;5.87;;;;;;;24.71;33.17;94854.41;6161306;28;103392;-54
2022/05/17 13:49:23;;;;;;;6.53;6.03;;;;;;;24.68;33.34;94838.19;6161279;28;102973;-54
2022/05/17 13:52:32;;;;;;;6.27;5.67;;;;;;;24.71;33.56;94834.91;6151416;28;104295;-54
2022/05/17 13:55:37;;;;;;;5.93;5.43;;;;;;;24.70;33.53;94825.31;6162208;28;105506;-54
2022/05/17 13:58:45;;;;;;;7.17;5.20;;;;;;;24.69;33.56;94824.50;6161470;28;103517;-54
2022/05/17 14:01:55;;;;;;;6.07;5.60;;;;;;;24.69;33.54;94821.03;6161153;28;103799;-54
2022/05/17 14:05:15;;;;;;;5.80;5.30;;;;;;;24.69;33.89;94821.81;6152609;28;104174;-54
2022/05/17 14:11:52;;;;;;;5.50;5.10;;;;;;;24.68;33.76;94811.44;6160923;28;103212;-54
2022/05/17 14:14:55;;;;;;;6.07;5.57;;;;;;;24.68;34.44;94814.91;6151121;28;103057;-54
2022/05/17 14:17:58;;;;;;;5.40;5.00;;;;;;;24.67;34.18;94805.28;6161330;28;103165;-54
2022/05/17 14:21:06;;;;;;;5.87;5.30;;;;;;;24.69;34.21;94802.31;6160729;28;103261;-54
2022/05/17 14:24:14;;;;;;;5.60;5.00;;;;;;;24.69;34.35;94800.41;6160230;28;102701;-54
2022/05/17 14:27:17;;;;;;;4.93;4.57;;;;;;;24.69;34.29;94804.97;6151651;28;103370;-54
2022/05/17 14:30:21;;;;;;;4.90;4.50;;;;;;;24.68;34.55;94792.72;6159574;28;103437;-54
2022/05/17 14:33:30;;;;;;;5.60;5.17;;;;;;;24.67;34.31;94781.19;6160715;28;104013;-54
2022/05/17 14:36:35;;;;;;;5.90;5.40;;;;;;;24.69;34.66;94789.72;6156458;28;103019;-54
2022/05/17 14:39:38;;;;;;;5.20;4.80;;;;;;;24.70;34.63;94777.91;6155924;28;103075;-56
2022/05/17 14:42:43;;;;;;;5.83;5.30;;;;;;;24.76;34.55;94773.13;6160161;28;103207;-55